Time;durP1;ratioP1;P1;durP2;ratioP2;P2;SDS_P1;SDS_P2;PMS_P1;PMS_P2;Temp;Humidity;BMP_temperature;BMP_pressure;BME280_temperature;BME280_humidity;BME280_pressure;Samples;Min_cycle;Max_cycle;Signal;HPM_P1;HPM_P2
2021/10/31 00:00:39;;;;;;;1.85;0.65;;;22.10;38.40;;;;;;4950070;29;20662;-60
2021/10/31 00:03:10;;;;;;;0.98;0.50;;;22.20;38.20;;;;;;4950973;28;20309;-62
2021/10/31 00:05:40;;;;;;;1.83;0.50;;;22.20;37.70;;;;;;4946043;28;20250;-60
2021/10/31 00:08:11;;;;;;;3.65;0.50;;;22.20;37.60;;;;;;4938788;29;20250;-61
2021/10/31 00:10:41;;;;;;;0.57;0.30;;;22.20;37.40;;;;;;4938993;29;20242;-60
2021/10/31 00:13:12;;;;;;;1.00;0.30;;;22.20;37.60;;;;;;4950133;28;20314;-50
2021/10/31 00:15:44;;;;;;;0.73;0.30;;;22.20;37.40;;;;;;4934461;29;20196;-55
2021/10/31 00:18:15;;;;;;;1.02;0.35;;;22.30;37.60;;;;;;4952579;29;20238;-56
2021/10/31 00:20:45;;;;;;;2.40;0.47;;;22.30;37.30;;;;;;4950257;29;20207;-52
2021/10/31 00:23:16;;;;;;;0.98;0.30;;;22.30;37.20;;;;;;4948245;28;20318;-55
2021/10/31 00:25:46;;;;;;;1.08;0.30;;;22.30;37.10;;;;;;4948691;28;20202;-60
2021/10/31 00:28:17;;;;;;;0.80;0.30;;;22.30;37.20;;;;;;4943515;28;20286;-60
2021/10/31 00:30:49;;;;;;;0.95;0.30;;;22.40;37.40;;;;;;4940575;29;20629;-59
2021/10/31 00:33:20;;;;;;;0.50;0.40;;;22.40;37.70;;;;;;4948343;28;20346;-58
2021/10/31 00:35:50;;;;;;;0.22;0.20;;;22.40;38.00;;;;;;4951133;28;20242;-55
2021/10/31 00:38:21;;;;;;;1.00;0.28;;;22.40;38.10;;;;;;4949574;28;20236;-59
2021/10/31 00:40:51;;;;;;;0.60;0.30;;;22.50;38.30;;;;;;4951038;29;20207;-60
2021/10/31 00:43:22;;;;;;;0.80;0.30;;;22.50;38.50;;;;;;4949794;28;20777;-60
2021/10/31 00:45:54;;;;;;;0.77;0.32;;;22.60;38.70;;;;;;4948332;28;20294;-59
2021/10/31 00:48:25;;;;;;;1.00;0.30;;;22.60;38.90;;;;;;4948906;28;20262;-59
2021/10/31 00:50:55;;;;;;;0.60;0.30;;;22.60;39.00;;;;;;4950523;28;20286;-60
2021/10/31 00:53:26;;;;;;;2.72;0.50;;;22.70;39.20;;;;;;4950942;28;20342;-60
2021/10/31 00:55:57;;;;;;;1.60;0.30;;;22.80;39.30;;;;;;4949894;28;20230;-60
2021/10/31 00:58:27;;;;;;;0.95;0.20;;;22.80;39.40;;;;;;4950799;28;20282;-60
2021/10/31 01:01:00;;;;;;;0.20;0.20;;;22.80;39.50;;;;;;4945794;28;20634;-59
2021/10/31 01:03:30;;;;;;;1.08;0.30;;;22.90;39.50;;;;;;4944016;28;20267;-60
2021/10/31 01:06:35;;;;;;;0.98;0.22;;;22.90;39.50;;;;;;4943193;28;20280;-60
2021/10/31 01:09:12;;;;;;;0.50;0.30;;;22.90;39.60;;;;;;4950423;29;20203;-59
2021/10/31 01:11:53;;;;;;;0.20;0.20;;;23.00;39.70;;;;;;4949487;28;20294;-60
2021/10/31 01:14:40;;;;;;;0.28;0.20;;;23.00;39.70;;;;;;4948679;28;20261;-60
2021/10/31 01:17:32;;;;;;;0.60;0.20;;;23.00;39.80;;;;;;4941085;28;20286;-59
2021/10/31 01:20:12;;;;;;;0.30;0.30;;;23.10;39.90;;;;;;4949351;29;20612;-60
2021/10/31 01:22:59;;;;;;;1.17;0.30;;;23.20;39.90;;;;;;4950307;28;20290;-60
2021/10/31 01:25:49;;;;;;;0.65;0.20;;;23.20;39.80;;;;;;4946620;29;20294;-60
2021/10/31 01:28:34;;;;;;;0.68;0.30;;;23.20;39.80;;;;;;4949071;28;20238;-57
2021/10/31 01:31:12;;;;;;;0.32;0.20;;;23.20;39.80;;;;;;4949089;28;20624;-59
2021/10/31 01:33:50;;;;;;;0.30;0.30;;;23.30;39.70;;;;;;4948336;28;20687;-60
2021/10/31 01:36:29;;;;;;;0.85;0.32;;;23.30;39.70;;;;;;4949725;28;20210;-60
2021/10/31 01:39:09;;;;;;;0.55;0.30;;;23.40;39.90;;;;;;4944566;28;20226;-55
2021/10/31 01:41:49;;;;;;;1.60;0.25;;;23.40;40.00;;;;;;4949992;28;20726;-58
2021/10/31 01:44:30;;;;;;;0.70;0.30;;;23.40;40.00;;;;;;4950359;28;20199;-59
2021/10/31 01:47:10;;;;;;;0.28;0.28;;;23.50;40.00;;;;;;4949856;28;20896;-60
2021/10/31 01:49:54;;;;;;;0.45;0.20;;;23.50;39.80;;;;;;4938504;28;20293;-60
2021/10/31 01:52:27;;;;;;;0.55;0.30;;;23.50;39.30;;;;;;4950358;28;20262;-56
2021/10/31 01:55:00;;;;;;;0.43;0.25;;;23.60;39.30;;;;;;4934867;29;20254;-59
2021/10/31 01:57:32;;;;;;;0.47;0.20;;;23.60;39.40;;;;;;4950254;29;20241;-55
2021/10/31 02:00:06;;;;;;;1.25;0.30;;;23.60;39.20;;;;;;4950255;29;20198;-57
2021/10/31 02:02:40;;;;;;;0.20;0.20;;;23.70;38.60;;;;;;4949235;28;20272;-58
2021/10/31 02:05:14;;;;;;;0.38;0.20;;;23.70;38.80;;;;;;4948792;28;20306;-59
2021/10/31 02:07:49;;;;;;;1.45;0.50;;;23.70;38.60;;;;;;4949611;28;20635;-59
2021/10/31 02:10:20;;;;;;;1.25;0.30;;;23.80;38.80;;;;;;4948112;28;20745;-59
2021/10/31 02:12:52;;;;;;;0.22;0.20;;;23.80;38.70;;;;;;4950578;28;20303;-59
2021/10/31 02:15:24;;;;;;;0.88;0.30;;;23.80;38.40;;;;;;4948880;28;20702;-58
2021/10/31 02:17:57;;;;;;;0.30;0.20;;;23.90;38.30;;;;;;4947681;28;20230;-59
2021/10/31 02:20:30;;;;;;;0.60;0.30;;;23.90;37.90;;;;;;4942923;29;20230;-59
2021/10/31 02:23:04;;;;;;;1.38;0.25;;;23.90;37.70;;;;;;4951850;28;20238;-56
2021/10/31 02:25:35;;;;;;;1.77;0.35;;;23.90;37.90;;;;;;4954391;29;20206;-51
2021/10/31 02:28:06;;;;;;;0.75;0.30;;;24.00;37.80;;;;;;4953190;28;20290;-60
2021/10/31 02:30:36;;;;;;;1.42;0.40;;;24.00;37.50;;;;;;4953514;28;20294;-59
2021/10/31 02:33:07;;;;;;;0.30;0.30;;;24.00;37.50;;;;;;4944261;28;20259;-59
2021/10/31 02:35:38;;;;;;;3.67;0.40;;;24.10;37.00;;;;;;4945619;29;20305;-54
2021/10/31 02:38:11;;;;;;;0.28;0.28;;;24.00;36.90;;;;;;4950514;28;20241;-54
2021/10/31 02:40:41;;;;;;;0.35;0.30;;;24.10;37.10;;;;;;4940168;29;20286;-59
2021/10/31 02:43:12;;;;;;;0.50;0.30;;;24.10;37.80;;;;;;4953731;28;20251;-50
2021/10/31 02:45:42;;;;;;;0.45;0.20;;;24.20;37.30;;;;;;4953934;29;20238;-58
2021/10/31 02:48:14;;;;;;;0.52;0.22;;;24.20;37.30;;;;;;4953207;29;20694;-55
2021/10/31 02:50:46;;;;;;;2.03;0.32;;;24.20;36.40;;;;;;4944795;28;20283;-58
2021/10/31 02:53:25;;;;;;;6.10;0.65;;;24.20;35.30;;;;;;4949052;28;20227;-55
2021/10/31 02:56:01;;;;;;;3.60;0.73;;;24.30;34.20;;;;;;4951336;28;20249;-55
2021/10/31 02:58:36;;;;;;;1.77;0.40;;;24.30;33.40;;;;;;4951378;28;20237;-52
2021/10/31 03:01:09;;;;;;;3.13;0.30;;;24.30;33.60;;;;;;4952046;28;20229;-61
2021/10/31 03:03:40;;;;;;;2.42;0.47;;;24.40;33.40;;;;;;4951922;28;20310;-59
2021/10/31 03:06:10;;;;;;;4.97;0.60;;;24.40;33.30;;;;;;4954330;28;20243;-49
2021/10/31 03:08:43;;;;;;;11.27;1.27;;;24.40;33.10;;;;;;4951297;28;20302;-50
2021/10/31 03:11:14;;;;;;;10.75;1.30;;;24.50;32.80;;;;;;4946754;29;20231;-57
2021/10/31 03:13:44;;;;;;;3.40;0.85;;;24.50;32.70;;;;;;4941466;28;20261;-55
2021/10/31 03:16:15;;;;;;;1.00;0.45;;;24.50;32.70;;;;;;4954101;28;20231;-55
2021/10/31 03:18:45;;;;;;;0.28;0.17;;;24.50;32.50;;;;;;4952313;28;20294;-60
2021/10/31 03:21:16;;;;;;;1.83;0.40;;;24.50;32.50;;;;;;4942293;28;20634;-59
2021/10/31 03:23:48;;;;;;;0.60;0.20;;;24.60;32.60;;;;;;4944848;29;20302;-53
2021/10/31 03:26:19;;;;;;;5.07;0.57;;;24.60;32.30;;;;;;4950633;28;20656;-53
2021/10/31 03:28:49;;;;;;;0.80;0.30;;;24.60;32.40;;;;;;4952811;28;20238;-53
2021/10/31 03:31:29;;;;;;;;;;;;;;;;;;;;;
2021/10/31 03:34:04;;;;;;;0.82;0.20;;;24.60;32.50;;;;;;4990101;28;20225;-55
2021/10/31 03:36:34;;;;;;;0.20;0.10;;;24.60;32.40;;;;;;4991355;28;20955;-54
2021/10/31 03:39:07;;;;;;;0.30;0.20;;;24.70;32.60;;;;;;4992425;28;20264;-54
2021/10/31 03:41:37;;;;;;;0.20;0.10;;;24.70;32.30;;;;;;4992722;28;20287;-50
2021/10/31 03:44:08;;;;;;;0.50;0.28;;;24.70;32.00;;;;;;5012356;28;20240;-55
2021/10/31 03:46:39;;;;;;;0.43;0.20;;;24.70;32.00;;;;;;5005900;28;20598;-54
2021/10/31 03:49:09;;;;;;;0.95;0.20;;;24.70;32.80;;;;;;4999482;28;20236;-52
2021/10/31 03:51:40;;;;;;;0.65;0.10;;;24.80;33.30;;;;;;5010294;28;20236;-54
2021/10/31 03:54:12;;;;;;;0.38;0.30;;;24.80;33.80;;;;;;5010091;28;21054;-54
2021/10/31 03:56:43;;;;;;;1.55;0.10;;;24.80;34.20;;;;;;5011044;28;20276;-55
2021/10/31 03:59:13;;;;;;;4.13;0.20;;;24.90;34.70;;;;;;5010327;28;20649;-56
2021/10/31 04:01:44;;;;;;;0.90;0.10;;;24.90;35.30;;;;;;5003889;28;20252;-54
2021/10/31 04:04:14;;;;;;;0.30;0.28;;;24.90;35.60;;;;;;5008152;28;20247;-55
2021/10/31 04:06:44;;;;;;;0.15;0.15;;;24.90;35.90;;;;;;5009599;28;20228;-55
2021/10/31 04:09:17;;;;;;;0.85;0.13;;;25.00;36.30;;;;;;5009750;28;20243;-51
2021/10/31 04:11:47;;;;;;;0.22;0.10;;;25.00;36.60;;;;;;5007725;28;20228;-53
2021/10/31 04:14:18;;;;;;;0.20;0.20;;;25.00;36.80;;;;;;5008733;28;20705;-53
2021/10/31 04:16:48;;;;;;;0.80;0.13;;;25.10;37.00;;;;;;4999653;28;20326;-55
2021/10/31 04:19:19;;;;;;;0.15;0.15;;;25.10;37.20;;;;;;5011761;28;20643;-55
2021/10/31 04:21:49;;;;;;;0.90;0.20;;;25.10;37.30;;;;;;5002805;28;20275;-55
2021/10/31 04:24:24;;;;;;;0.63;0.20;;;25.10;37.30;;;;;;5008907;28;20244;-52
2021/10/31 04:26:55;;;;;;;0.35;0.20;;;25.20;37.40;;;;;;5021210;28;20200;-56
2021/10/31 04:29:25;;;;;;;0.28;0.20;;;25.20;37.70;;;;;;5016376;28;20243;-54
2021/10/31 04:31:56;;;;;;;0.25;0.20;;;25.20;37.80;;;;;;5022934;23;20209;-51
2021/10/31 04:34:27;;;;;;;0.73;0.17;;;25.20;38.00;;;;;;5041321;28;20234;-51
2021/10/31 04:36:57;;;;;;;0.10;0.10;;;25.30;38.10;;;;;;5030123;28;20258;-53
2021/10/31 04:39:30;;;;;;;3.20;0.35;;;25.30;38.10;;;;;;5029658;28;20204;-51
2021/10/31 04:42:04;;;;;;;0.20;0.20;;;25.30;38.20;;;;;;5015445;28;20323;-54
2021/10/31 04:44:35;;;;;;;0.08;0.08;;;25.30;38.40;;;;;;5026991;28;20652;-52
2021/10/31 04:47:07;;;;;;;0.10;0.10;;;25.40;38.40;;;;;;5028423;28;20291;-53
2021/10/31 04:49:37;;;;;;;0.73;0.15;;;25.40;38.50;;;;;;5026822;28;20235;-52
2021/10/31 04:52:09;;;;;;;0.43;0.32;;;25.40;39.20;;;;;;5027350;28;20690;-51
2021/10/31 04:54:41;;;;;;;0.68;0.10;;;25.50;38.70;;;;;;5023751;28;20303;-53
2021/10/31 04:57:12;;;;;;;1.45;0.20;;;25.50;38.60;;;;;;5014410;28;20235;-52
2021/10/31 04:59:42;;;;;;;0.25;0.20;;;25.50;38.60;;;;;;5012355;28;20233;-52
2021/10/31 05:02:12;;;;;;;0.70;0.13;;;25.50;38.60;;;;;;5012924;28;20248;-52
2021/10/31 05:04:43;;;;;;;0.85;0.17;;;25.50;38.60;;;;;;5028982;28;20305;-50
2021/10/31 05:07:15;;;;;;;0.25;0.17;;;25.50;39.00;;;;;;5026775;28;20250;-53
2021/10/31 05:09:48;;;;;;;1.00;0.20;;;25.50;38.70;;;;;;5015780;28;20237;-49
2021/10/31 05:12:22;;;;;;;0.20;0.20;;;25.50;38.60;;;;;;5023351;28;20255;-50
2021/10/31 05:14:52;;;;;;;0.20;0.10;;;25.50;38.60;;;;;;5018007;28;20227;-53
2021/10/31 05:17:22;;;;;;;0.30;0.20;;;25.50;38.60;;;;;;5029069;28;20231;-53
2021/10/31 05:19:53;;;;;;;0.52;0.20;;;25.50;38.50;;;;;;5026658;28;20232;-53
2021/10/31 05:22:23;;;;;;;0.13;0.10;;;25.50;38.60;;;;;;5025765;28;21264;-53
2021/10/31 05:24:56;;;;;;;0.10;0.10;;;25.50;38.70;;;;;;5012380;28;20302;-52
2021/10/31 05:27:26;;;;;;;0.57;0.20;;;25.50;38.70;;;;;;5026824;28;20771;-54
2021/10/31 05:29:57;;;;;;;0.32;0.20;;;25.50;38.90;;;;;;5027208;28;20283;-55
2021/10/31 05:32:32;;;;;;;0.50;0.30;;;25.50;39.10;;;;;;5014461;28;20307;-53
2021/10/31 05:35:03;;;;;;;0.77;0.20;;;25.50;39.10;;;;;;5027213;28;20293;-53
2021/10/31 05:37:37;;;;;;;1.40;0.28;;;25.50;39.20;;;;;;5017803;28;20200;-51
2021/10/31 05:40:11;;;;;;;0.40;0.10;;;25.50;39.20;;;;;;5016906;28;20723;-55
2021/10/31 05:42:42;;;;;;;0.22;0.15;;;25.50;39.30;;;;;;5027671;28;20254;-51
2021/10/31 05:45:13;;;;;;;0.20;0.20;;;25.50;39.30;;;;;;5018472;28;20236;-55
2021/10/31 05:47:46;;;;;;;2.15;0.30;;;25.50;39.40;;;;;;5028970;28;20258;-55
2021/10/31 05:50:18;;;;;;;0.35;0.20;;;25.50;39.40;;;;;;5029393;28;20258;-53
2021/10/31 05:52:49;;;;;;;0.65;0.15;;;25.50;39.60;;;;;;5010649;28;20282;-53
2021/10/31 05:55:21;;;;;;;0.38;0.17;;;25.50;39.70;;;;;;5026977;28;20659;-52
2021/10/31 05:57:51;;;;;;;0.10;0.10;;;25.40;39.70;;;;;;5029325;28;20227;-52
2021/10/31 06:00:22;;;;;;;0.30;0.20;;;25.40;39.70;;;;;;5022692;28;20228;-51
2021/10/31 06:02:52;;;;;;;0.10;0.10;;;25.40;39.70;;;;;;5024456;28;20247;-52
2021/10/31 06:05:23;;;;;;;0.65;0.20;;;25.40;39.70;;;;;;5024485;28;20197;-51
2021/10/31 06:07:53;;;;;;;0.35;0.30;;;25.40;39.60;;;;;;5030744;28;20196;-48
2021/10/31 06:10:26;;;;;;;0.25;0.25;;;25.40;39.80;;;;;;5023786;28;20228;-50
2021/10/31 06:12:56;;;;;;;0.50;0.30;;;25.40;40.10;;;;;;5032070;28;20299;-53
2021/10/31 06:15:27;;;;;;;0.32;0.30;;;25.30;39.90;;;;;;5012351;28;20263;-50
2021/10/31 06:17:57;;;;;;;0.50;0.20;;;25.30;39.80;;;;;;5029032;28;20240;-53
2021/10/31 06:20:28;;;;;;;0.32;0.20;;;25.30;39.90;;;;;;5031104;28;20227;-53
2021/10/31 06:22:58;;;;;;;0.10;0.10;;;25.30;40.00;;;;;;5030019;28;20251;-54
2021/10/31 06:25:31;;;;;;;0.70;0.25;;;25.30;40.10;;;;;;5028629;28;20573;-53
2021/10/31 06:28:01;;;;;;;0.10;0.10;;;25.30;40.10;;;;;;5030638;28;20664;-56
2021/10/31 06:30:32;;;;;;;0.80;0.40;;;25.30;40.30;;;;;;5032059;28;20231;-51
2021/10/31 06:33:02;;;;;;;0.55;0.50;;;25.30;40.20;;;;;;5014932;28;20259;-54
2021/10/31 06:35:33;;;;;;;0.38;0.30;;;25.20;40.00;;;;;;5028134;28;20315;-50
2021/10/31 06:38:03;;;;;;;0.47;0.30;;;25.20;39.70;;;;;;5016488;28;20251;-51
2021/10/31 06:40:36;;;;;;;2.42;0.55;;;25.20;39.70;;;;;;5017381;28;20232;-53
2021/10/31 06:43:06;;;;;;;1.25;0.38;;;25.20;39.70;;;;;;5024550;28;20262;-47
2021/10/31 06:45:37;;;;;;;2.10;0.40;;;25.10;39.70;;;;;;5023214;28;20282;-50
2021/10/31 06:48:08;;;;;;;1.08;0.40;;;25.10;39.70;;;;;;5018423;28;20237;-47
2021/10/31 06:50:38;;;;;;;0.75;0.50;;;25.10;39.70;;;;;;5025965;28;20201;-52
2021/10/31 06:53:09;;;;;;;1.83;0.38;;;25.10;39.70;;;;;;5021229;28;20263;-51
2021/10/31 06:55:41;;;;;;;0.75;0.50;;;25.00;39.70;;;;;;5014391;28;20700;-48
2021/10/31 06:58:18;;;;;;;1.05;0.40;;;25.00;40.00;;;;;;5016119;28;20207;-51
2021/10/31 07:00:53;;;;;;;0.75;0.30;;;25.00;40.20;;;;;;5029884;28;20203;-51
2021/10/31 07:03:25;;;;;;;2.33;0.65;;;25.00;40.40;;;;;;5029680;28;20770;-55
2021/10/31 07:05:59;;;;;;;1.33;0.55;;;24.90;40.50;;;;;;5026295;28;20196;-56
2021/10/31 07:08:30;;;;;;;1.48;0.50;;;24.90;40.30;;;;;;5023772;28;20209;-47
2021/10/31 07:11:06;;;;;;;1.15;0.50;;;24.90;40.60;;;;;;5021723;28;20255;-48
2021/10/31 07:13:37;;;;;;;2.22;0.47;;;24.90;40.70;;;;;;5019649;28;20563;-52
2021/10/31 07:16:17;;;;;;;0.40;0.40;;;24.90;40.80;;;;;;5029974;28;20610;-57
2021/10/31 07:18:48;;;;;;;1.27;0.60;;;24.80;41.00;;;;;;5027270;28;20203;-55
2021/10/31 07:27:05;;;;;;;5.32;1.00;;;24.80;41.20;;;;;;5015641;28;20208;-53
2021/10/31 07:29:42;;;;;;;4.15;1.10;;;24.70;41.10;;;;;;5014494;28;20203;-54
2021/10/31 07:32:16;;;;;;;6.45;0.90;;;24.70;41.30;;;;;;5031322;28;20285;-54
2021/10/31 07:34:51;;;;;;;2.78;1.00;;;24.70;41.40;;;;;;5030373;28;20192;-49
2021/10/31 07:37:29;;;;;;;3.25;0.90;;;24.70;41.40;;;;;;5014937;28;20263;-53
2021/10/31 07:40:02;;;;;;;2.50;0.98;;;24.70;41.60;;;;;;5026808;28;20287;-48
2021/10/31 07:42:40;;;;;;;3.78;1.10;;;24.60;41.50;;;;;;5021244;28;20232;-56
2021/10/31 07:45:14;;;;;;;3.85;1.40;;;24.60;41.70;;;;;;5016883;28;20378;-54
2021/10/31 07:47:47;;;;;;;3.80;1.25;;;24.60;41.90;;;;;;5015470;28;20196;-55
2021/10/31 07:50:20;;;;;;;5.05;1.60;;;24.60;41.90;;;;;;5016590;28;20227;-55
2021/10/31 07:52:56;;;;;;;5.57;1.38;;;24.50;42.00;;;;;;5009963;28;20303;-52
2021/10/31 07:55:30;;;;;;;4.57;1.90;;;24.50;42.00;;;;;;5029891;28;20300;-48
2021/10/31 07:58:06;;;;;;;5.70;1.50;;;24.50;42.10;;;;;;5023203;28;20196;-55
2021/10/31 08:00:37;;;;;;;3.47;1.30;;;24.50;42.20;;;;;;5031058;28;20652;-55
2021/10/31 08:03:08;;;;;;;6.63;1.58;;;24.50;42.30;;;;;;5029981;28;20212;-54
2021/10/31 08:05:38;;;;;;;9.10;1.52;;;24.50;42.30;;;;;;5019264;28;20228;-52
2021/10/31 08:08:09;;;;;;;6.93;1.77;;;24.50;42.30;;;;;;5028026;28;20210;-55
2021/10/31 08:10:40;;;;;;;4.97;1.23;;;24.50;42.40;;;;;;5029973;28;20258;-49
2021/10/31 08:13:22;;;;;;;6.28;1.40;;;24.50;42.40;;;;;;5027307;28;20212;-47
2021/10/31 08:15:52;;;;;;;4.70;1.20;;;24.40;42.30;;;;;;5018735;28;20311;-54
2021/10/31 08:18:23;;;;;;;4.38;1.15;;;24.40;42.40;;;;;;5025225;28;20236;-54
2021/10/31 08:20:54;;;;;;;3.88;1.40;;;24.40;42.40;;;;;;5016191;28;20297;-56
2021/10/31 08:23:25;;;;;;;4.55;1.27;;;24.40;42.50;;;;;;5013201;28;20248;-55
2021/10/31 08:25:55;;;;;;;4.28;1.35;;;24.30;42.50;;;;;;5013436;28;20229;-55
2021/10/31 08:28:28;;;;;;;2.88;1.15;;;24.30;42.50;;;;;;5013866;28;20602;-51
2021/10/31 08:30:59;;;;;;;4.57;1.23;;;24.30;42.60;;;;;;5014710;28;20232;-53
2021/10/31 08:33:33;;;;;;;2.63;1.13;;;24.30;42.60;;;;;;5025862;28;20228;-48
2021/10/31 08:36:05;;;;;;;3.65;1.33;;;24.30;42.70;;;;;;5024211;28;20236;-53
2021/10/31 08:38:36;;;;;;;3.28;1.17;;;24.30;42.70;;;;;;5020224;28;20266;-52
2021/10/31 08:41:06;;;;;;;4.18;1.50;;;24.20;42.70;;;;;;5025455;28;20644;-54
2021/10/31 08:43:40;;;;;;;2.67;1.15;;;24.20;42.70;;;;;;5025707;28;20744;-53
2021/10/31 08:46:11;;;;;;;2.90;1.00;;;24.20;42.80;;;;;;5028317;28;20239;-50
2021/10/31 08:48:42;;;;;;;1.83;1.02;;;24.20;42.80;;;;;;5030531;28;20283;-52
2021/10/31 08:51:12;;;;;;;2.25;0.85;;;24.20;42.90;;;;;;5028608;28;20223;-48
2021/10/31 08:53:43;;;;;;;3.30;0.80;;;24.20;42.90;;;;;;5028162;28;20313;-48
2021/10/31 08:56:13;;;;;;;3.63;1.08;;;24.20;42.90;;;;;;5026574;28;20430;-52
2021/10/31 08:58:48;;;;;;;2.30;1.20;;;24.20;43.00;;;;;;5022395;28;20242;-53
2021/10/31 09:01:18;;;;;;;2.17;0.98;;;24.10;43.00;;;;;;5027412;28;20242;-52
2021/10/31 09:03:50;;;;;;;2.65;1.25;;;24.10;43.00;;;;;;5025679;28;20627;-55
2021/10/31 09:06:20;;;;;;;2.80;1.10;;;24.10;43.10;;;;;;5017491;28;20208;-48
2021/10/31 09:08:51;;;;;;;2.03;1.00;;;24.10;43.10;;;;;;5013512;28;20637;-50
2021/10/31 09:11:21;;;;;;;2.63;1.25;;;24.10;43.20;;;;;;5012637;28;20287;-53
2021/10/31 09:13:54;;;;;;;2.53;1.00;;;24.00;43.20;;;;;;5014136;28;20252;-48
2021/10/31 09:16:25;;;;;;;2.58;1.27;;;24.00;43.30;;;;;;5023764;28;20252;-49
2021/10/31 09:18:55;;;;;;;2.92;1.20;;;24.00;43.30;;;;;;5014464;28;20197;-49
2021/10/31 09:21:28;;;;;;;2.42;0.82;;;24.00;43.30;;;;;;5019189;28;20204;-54
2021/10/31 09:23:58;;;;;;;5.10;1.20;;;24.00;43.40;;;;;;5026038;28;20266;-53
2021/10/31 09:26:29;;;;;;;4.20;1.00;;;23.90;43.40;;;;;;5027181;28;20228;-52
2021/10/31 09:29:01;;;;;;;2.92;1.02;;;23.90;43.40;;;;;;5025110;28;20208;-56
2021/10/31 09:31:32;;;;;;;3.15;0.98;;;23.90;43.50;;;;;;5013387;28;20196;-55
2021/10/31 09:34:02;;;;;;;1.95;0.80;;;23.90;43.50;;;;;;5010194;28;20307;-56
2021/10/31 09:36:35;;;;;;;2.17;0.82;;;23.80;43.50;;;;;;5027282;28;20259;-55
2021/10/31 09:39:06;;;;;;;2.67;0.82;;;23.80;43.50;;;;;;5025722;28;20782;-56
2021/10/31 09:41:37;;;;;;;3.50;0.90;;;23.80;43.60;;;;;;5024637;28;20262;-54
2021/10/31 09:44:18;;;;;;;2.58;1.00;;;23.80;43.60;;;;;;5025664;28;20243;-56
2021/10/31 09:46:49;;;;;;;2.58;0.90;;;23.80;43.60;;;;;;5027592;28;20200;-56
2021/10/31 09:49:20;;;;;;;1.98;0.75;;;23.80;43.60;;;;;;5025930;28;20228;-57
2021/10/31 09:51:53;;;;;;;2.80;1.00;;;23.80;43.70;;;;;;5026813;28;20563;-56
2021/10/31 09:54:23;;;;;;;2.50;1.08;;;23.70;43.70;;;;;;5026026;28;20254;-56
2021/10/31 09:56:54;;;;;;;1.85;0.90;;;23.70;43.70;;;;;;5028211;28;20255;-53
2021/10/31 09:59:27;;;;;;;1.90;0.70;;;23.70;43.80;;;;;;5023917;28;20243;-55
2021/10/31 10:02:12;;;;;;;2.00;1.05;;;23.70;43.80;;;;;;5026393;28;20196;-57
2021/10/31 10:04:50;;;;;;;2.60;0.90;;;23.70;43.90;;;;;;5027062;28;20207;-56
2021/10/31 10:07:23;;;;;;;1.90;0.93;;;23.70;44.00;;;;;;5014567;28;20553;-56
2021/10/31 10:09:55;;;;;;;3.15;0.90;;;23.60;43.90;;;;;;5022441;28;20250;-49
2021/10/31 10:12:27;;;;;;;2.10;1.10;;;23.60;44.00;;;;;;5026624;28;20256;-49
2021/10/31 10:15:05;;;;;;;1.52;1.00;;;23.60;44.00;;;;;;5024249;28;20297;-49
2021/10/31 10:17:52;;;;;;;2.10;0.70;;;23.50;44.00;;;;;;5028992;28;20255;-53
2021/10/31 10:20:23;;;;;;;2.78;0.90;;;23.50;44.10;;;;;;5025621;28;20234;-54
2021/10/31 10:23:10;;;;;;;1.80;0.80;;;23.50;44.00;;;;;;5026432;28;20303;-56
2021/10/31 10:25:44;;;;;;;1.90;1.00;;;23.50;44.10;;;;;;5012016;28;20236;-54
2021/10/31 10:28:27;;;;;;;1.25;0.70;;;23.50;44.10;;;;;;5026131;28;20573;-53
2021/10/31 10:31:24;;;;;;;1.83;0.85;;;23.40;44.10;;;;;;5027854;28;20283;-54
2021/10/31 10:33:55;;;;;;;1.90;0.82;;;23.40;44.10;;;;;;5012025;28;20263;-54
2021/10/31 10:36:26;;;;;;;1.77;0.80;;;23.40;44.10;;;;;;5026373;28;20327;-53
2021/10/31 10:39:06;;;;;;;2.00;0.75;;;23.40;44.20;;;;;;5018447;28;20224;-52
2021/10/31 10:41:50;;;;;;;1.27;0.73;;;23.40;44.30;;;;;;5024380;28;20598;-52
2021/10/31 10:44:26;;;;;;;1.70;0.77;;;23.40;44.40;;;;;;5014594;28;20220;-56
2021/10/31 10:47:00;;;;;;;2.00;1.00;;;23.30;44.40;;;;;;5036522;28;20278;-53
2021/10/31 10:49:33;;;;;;;1.13;0.80;;;23.30;44.40;;;;;;5033235;28;20235;-56
2021/10/31 10:52:19;;;;;;;2.65;0.90;;;23.30;44.50;;;;;;5028250;28;20203;-57
2021/10/31 10:54:52;;;;;;;1.45;0.80;;;23.20;44.50;;;;;;5023366;28;20201;-57
2021/10/31 10:57:23;;;;;;;2.40;1.02;;;23.20;44.60;;;;;;5019624;28;20263;-56
2021/10/31 10:59:58;;;;;;;1.67;0.75;;;23.20;44.60;;;;;;5028509;28;20201;-56
2021/10/31 11:02:31;;;;;;;1.73;0.73;;;23.20;44.60;;;;;;5025703;28;20217;-56
2021/10/31 11:05:03;;;;;;;1.55;0.82;;;23.20;44.70;;;;;;5028374;28;20508;-54
2021/10/31 11:07:36;;;;;;;1.48;0.80;;;23.10;44.70;;;;;;5031984;28;20294;-57
2021/10/31 11:10:11;;;;;;;1.08;0.80;;;23.10;44.70;;;;;;5013529;28;20254;-57
2021/10/31 11:12:43;;;;;;;1.70;0.80;;;23.10;44.80;;;;;;5027504;28;20255;-56
2021/10/31 11:15:15;;;;;;;2.25;1.00;;;23.10;44.80;;;;;;5017808;28;20720;-56
2021/10/31 11:17:49;;;;;;;1.60;0.90;;;23.00;44.80;;;;;;5024401;28;20327;-56
2021/10/31 11:20:20;;;;;;;2.25;1.05;;;23.00;44.80;;;;;;5029320;28;20239;-57
2021/10/31 11:22:52;;;;;;;1.70;0.90;;;23.00;44.80;;;;;;5027699;28;20299;-54
2021/10/31 11:25:23;;;;;;;1.25;0.60;;;23.00;44.90;;;;;;5027529;28;20279;-54
2021/10/31 11:27:55;;;;;;;2.03;0.93;;;23.00;44.90;;;;;;5029387;28;20240;-56
2021/10/31 11:30:26;;;;;;;1.85;0.80;;;22.90;44.90;;;;;;5028909;28;21117;-57
2021/10/31 11:32:59;;;;;;;1.10;0.70;;;22.90;44.90;;;;;;5042179;28;20308;-56
2021/10/31 11:35:30;;;;;;;1.75;1.05;;;22.90;45.00;;;;;;5027928;28;20234;-57
2021/10/31 11:38:05;;;;;;;2.17;0.70;;;22.90;45.10;;;;;;5016168;28;20902;-57
2021/10/31 11:40:37;;;;;;;1.60;0.77;;;22.90;45.10;;;;;;5022947;28;20199;-57
2021/10/31 11:43:11;;;;;;;1.92;1.00;;;22.80;45.10;;;;;;5021061;28;20275;-53
2021/10/31 11:45:41;;;;;;;1.35;0.75;;;22.80;45.20;;;;;;5015361;28;20732;-54
2021/10/31 11:48:15;;;;;;;1.02;0.57;;;22.80;45.20;;;;;;5028455;28;20247;-57
2021/10/31 11:51:06;;;;;;;1.13;0.80;;;22.80;45.20;;;;;;5026027;28;20228;-57
2021/10/31 11:53:38;;;;;;;0.57;0.43;;;22.80;45.20;;;;;;5015632;28;20248;-57
2021/10/31 11:56:19;;;;;;;1.48;0.88;;;22.70;45.20;;;;;;5029683;28;20243;-57
2021/10/31 11:58:58;;;;;;;1.27;0.77;;;22.70;45.30;;;;;;5013830;28;20282;-54
2021/10/31 12:01:49;;;;;;;1.33;0.88;;;22.70;45.30;;;;;;5029657;28;20203;-55
2021/10/31 12:05:14;;;;;;;1.70;0.88;;;22.60;45.30;;;;;;5029973;28;20840;-56
2021/10/31 12:07:49;;;;;;;1.75;0.70;;;22.60;45.40;;;;;;5023433;28;20278;-57
2021/10/31 12:10:33;;;;;;;1.60;0.82;;;22.60;45.40;;;;;;5012358;28;20236;-57
2021/10/31 12:13:16;;;;;;;0.82;0.60;;;22.60;45.40;;;;;;5024104;28;20243;-57
2021/10/31 12:16:03;;;;;;;1.88;0.80;;;22.60;45.50;;;;;;5028878;28;20228;-56
2021/10/31 12:18:48;;;;;;;1.27;0.68;;;22.50;45.50;;;;;;5041521;28;20225;-54
2021/10/31 12:21:23;;;;;;;1.08;0.68;;;22.50;45.50;;;;;;5014376;28;20228;-56
2021/10/31 12:24:02;;;;;;;0.98;0.70;;;22.50;45.60;;;;;;5028830;28;20309;-54
2021/10/31 12:26:38;;;;;;;2.33;1.08;;;22.40;45.60;;;;;;5027847;28;20228;-56
2021/10/31 12:29:13;;;;;;;1.15;0.75;;;22.40;45.60;;;;;;5027851;28;20204;-56
2021/10/31 12:34:39;;;;;;;1.85;0.93;;;22.40;45.70;;;;;;5008968;28;20287;-47
2021/10/31 12:37:31;;;;;;;2.08;1.00;;;22.40;45.80;;;;;;5009161;28;20220;-55
2021/10/31 12:40:07;;;;;;;2.58;0.80;;;22.30;45.70;;;;;;5009761;28;20232;-50
2021/10/31 12:42:39;;;;;;;2.03;1.10;;;22.30;45.70;;;;;;5009612;28;20701;-49
2021/10/31 12:45:25;;;;;;;2.85;0.90;;;22.30;45.80;;;;;;5009544;28;20208;-48
2021/10/31 12:47:57;;;;;;;1.83;0.82;;;22.30;45.80;;;;;;5008769;28;20203;-50
2021/10/31 12:50:30;;;;;;;1.58;0.80;;;22.30;45.80;;;;;;5010208;28;20197;-48
2021/10/31 12:53:02;;;;;;;1.98;0.90;;;22.30;45.90;;;;;;5009628;28;20505;-48
2021/10/31 12:55:34;;;;;;;2.10;0.82;;;22.20;45.80;;;;;;5010038;28;20239;-49
2021/10/31 12:58:07;;;;;;;1.17;0.80;;;22.20;45.90;;;;;;5009580;28;20688;-49
2021/10/31 13:00:42;;;;;;;1.30;0.80;;;22.20;45.90;;;;;;5009583;28;20623;-48
2021/10/31 13:03:14;;;;;;;1.15;0.70;;;22.20;45.90;;;;;;5008117;28;20774;-46
2021/10/31 13:05:50;;;;;;;1.23;0.90;;;22.20;45.90;;;;;;5008408;28;20758;-47
2021/10/31 13:08:23;;;;;;;1.10;0.80;;;22.10;45.90;;;;;;5008878;28;20200;-51
2021/10/31 13:10:56;;;;;;;2.35;0.70;;;22.10;46.00;;;;;;5009496;28;20228;-51
2021/10/31 13:13:29;;;;;;;1.52;0.95;;;22.10;46.10;;;;;;5009360;28;20271;-50
2021/10/31 13:16:02;;;;;;;1.33;0.90;;;22.10;46.10;;;;;;5009138;28;20677;-48
2021/10/31 13:18:34;;;;;;;1.45;0.90;;;22.00;46.10;;;;;;5008249;28;20941;-51
2021/10/31 13:21:12;;;;;;;1.10;0.90;;;22.00;46.70;;;;;;4994042;28;20200;-47
2021/10/31 13:23:45;;;;;;;2.08;0.90;;;22.00;46.10;;;;;;5009241;28;20220;-49
2021/10/31 13:26:21;;;;;;;1.02;0.63;;;22.00;46.20;;;;;;5008749;28;20617;-49
2021/10/31 13:28:53;;;;;;;2.25;1.02;;;22.00;46.20;;;;;;5009019;28;20282;-48